createdAt,value
2024-03-01T00:00:33.606Z,93584.00
2024-03-01T00:01:33.617Z,93584.00
2024-03-01T00:02:33.582Z,93584.00
2024-03-01T00:03:33.591Z,93582.00
2024-03-01T00:04:33.663Z,93582.00
2024-03-01T00:05:33.604Z,93581.00
2024-03-01T00:06:33.634Z,93579.00
2024-03-01T00:07:33.671Z,93575.00
2024-03-01T00:08:33.638Z,93575.00
2024-03-01T00:09:33.784Z,93574.00
2024-03-01T00:10:33.761Z,93571.00
2024-03-01T00:11:33.694Z,93572.00
2024-03-01T00:12:33.704Z,93573.00
2024-03-01T00:13:33.780Z,93572.00
2024-03-01T00:14:33.699Z,93577.00
2024-03-01T00:15:33.725Z,93578.00
2024-03-01T00:16:33.755Z,93579.00
2024-03-01T00:17:33.735Z,93577.00
2024-03-01T00:18:33.833Z,93577.00
2024-03-01T00:19:33.802Z,93574.00
2024-03-01T00:20:33.822Z,93574.00
2024-03-01T00:21:33.779Z,93572.00
2024-03-01T00:22:33.861Z,93570.00
2024-03-01T00:23:33.781Z,93571.00
2024-03-01T00:24:33.803Z,93569.00
2024-03-01T00:25:33.872Z,93571.00
2024-03-01T00:26:33.819Z,93571.00
2024-03-01T00:27:33.822Z,93571.00
2024-03-01T00:28:33.852Z,93572.00
2024-03-01T00:29:33.858Z,93572.00
2024-03-01T00:30:33.864Z,93569.00
2024-03-01T00:31:33.921Z,93567.00
2024-03-01T00:32:33.964Z,93567.00
2024-03-01T00:33:33.895Z,93564.00
2024-03-01T00:34:34.086Z,93564.00
2024-03-01T00:35:33.934Z,93564.00
2024-03-01T00:36:33.946Z,93566.00
2024-03-01T00:37:33.979Z,93565.00
2024-03-01T00:38:33.962Z,93563.00
2024-03-01T00:39:34.000Z,93562.00
2024-03-01T00:40:34.044Z,93561.00
2024-03-01T00:41:34.014Z,93562.00
2024-03-01T00:42:34.038Z,93560.00
2024-03-01T00:43:34.107Z,93562.00
2024-03-01T00:44:34.067Z,93562.00
2024-03-01T00:45:34.067Z,93561.00
2024-03-01T00:46:34.104Z,93560.00
2024-03-01T00:47:34.093Z,93562.00
2024-03-01T00:48:34.098Z,93559.00
2024-03-01T00:49:34.123Z,93557.00
2024-03-01T00:50:34.218Z,93557.00
2024-03-01T00:51:34.122Z,93555.00
2024-03-01T00:52:34.184Z,93554.00
2024-03-01T00:53:34.170Z,93553.00
2024-03-01T00:54:34.157Z,93549.00
2024-03-01T00:55:34.173Z,93548.00
2024-03-01T00:56:34.183Z,93545.00
2024-03-01T00:57:34.214Z,93543.00
2024-03-01T00:58:34.236Z,93542.00
2024-03-01T00:59:34.220Z,93537.00
2024-03-01T01:00:34.226Z,93540.00
2024-03-01T01:01:34.337Z,93540.00
2024-03-01T01:02:40.419Z,93538.00
2024-03-01T01:03:35.250Z,93542.00
2024-03-01T01:04:34.302Z,93540.00
2024-03-01T01:05:34.249Z,93540.00
2024-03-01T01:06:34.350Z,93540.00
2024-03-01T01:07:34.304Z,93539.00
2024-03-01T01:08:34.273Z,93539.00
2024-03-01T01:09:34.252Z,93539.00
2024-03-01T01:10:34.358Z,93538.00
2024-03-01T01:11:34.269Z,93537.00
2024-03-01T01:12:34.329Z,93536.00
2024-03-01T01:13:35.012Z,93536.00
2024-03-01T01:14:34.271Z,93536.00
2024-03-01T01:15:34.264Z,93536.00
2024-03-01T01:16:34.297Z,93536.00
2024-03-01T01:17:34.343Z,93537.00
2024-03-01T01:18:34.268Z,93537.00
2024-03-01T01:19:34.315Z,93540.00
2024-03-01T01:20:34.270Z,93540.00
2024-03-01T01:21:34.273Z,93538.00
2024-03-01T01:22:34.431Z,93539.00
2024-03-01T01:23:34.305Z,93535.00
2024-03-01T01:24:34.266Z,93534.00
2024-03-01T01:25:34.336Z,93534.00
2024-03-01T01:26:34.263Z,93532.00
2024-03-01T01:27:34.279Z,93530.00
2024-03-01T01:28:34.325Z,93531.00
2024-03-01T01:29:34.300Z,93529.00
2024-03-01T01:30:34.303Z,93529.00
2024-03-01T01:31:34.337Z,93527.00
2024-03-01T01:32:34.366Z,93525.00
2024-03-01T01:33:34.346Z,93524.00
2024-03-01T01:34:34.378Z,93521.00
2024-03-01T01:35:34.453Z,93517.00
2024-03-01T01:36:34.369Z,93514.00
2024-03-01T01:37:34.434Z,93514.00
2024-03-01T01:38:34.396Z,93511.00
2024-03-01T01:39:34.431Z,93509.00
2024-03-01T01:40:34.543Z,93510.00
2024-03-01T01:41:34.438Z,93505.00
2024-03-01T01:42:34.462Z,93502.00
2024-03-01T01:43:34.542Z,93504.00
2024-03-01T01:44:34.486Z,93503.00
2024-03-01T01:45:34.484Z,93502.00
2024-03-01T01:46:34.511Z,93499.00
2024-03-01T01:47:34.531Z,93498.00
2024-03-01T01:48:34.531Z,93493.00
2024-03-01T01:49:34.581Z,93493.00
2024-03-01T01:50:34.549Z,93491.00
2024-03-01T01:51:34.568Z,93487.00
2024-03-01T01:52:34.648Z,93490.00
2024-03-01T01:53:34.615Z,93487.00
2024-03-01T01:54:34.638Z,93491.00
2024-03-01T01:55:34.682Z,93492.00
2024-03-01T01:56:34.615Z,93494.00
2024-03-01T01:57:34.649Z,93494.00
2024-03-01T01:58:34.729Z,93495.00
2024-03-01T01:59:34.655Z,93491.00
2024-03-01T02:00:34.692Z,93492.00
2024-03-01T02:01:34.775Z,93488.00
2024-03-01T02:02:34.711Z,93486.00
2024-03-01T02:03:34.719Z,93488.00
2024-03-01T02:04:34.740Z,93488.00
2024-03-01T02:05:34.741Z,93488.00
2024-03-01T02:06:34.753Z,93489.00
2024-03-01T02:07:34.811Z,93489.00
2024-03-01T02:08:34.758Z,93489.00
2024-03-01T02:09:34.792Z,93486.00
2024-03-01T02:10:34.977Z,93484.00
2024-03-01T02:11:34.992Z,93482.00
2024-03-01T02:12:34.816Z,93477.00
2024-03-01T02:13:34.946Z,93474.00
2024-03-01T02:14:34.841Z,93472.00
2024-03-01T02:15:34.861Z,93474.00
2024-03-01T02:16:35.075Z,93470.00
2024-03-01T02:17:34.891Z,93469.00
2024-03-01T02:18:34.912Z,93469.00
2024-03-01T02:19:34.943Z,93468.00
2024-03-01T02:20:34.916Z,93468.00
2024-03-01T02:21:34.933Z,93468.00
2024-03-01T02:22:35.015Z,93466.00
2024-03-01T02:23:34.983Z,93466.00
2024-03-01T02:24:34.982Z,93463.00
2024-03-01T02:25:35.048Z,93466.00
2024-03-01T02:26:35.122Z,93464.00
2024-03-01T02:27:35.059Z,93459.00
2024-03-01T02:28:35.074Z,93459.00
2024-03-01T02:29:35.084Z,93460.00
2024-03-01T02:30:35.097Z,93459.00
2024-03-01T02:31:35.127Z,93460.00
2024-03-01T02:32:35.167Z,93459.00
2024-03-01T02:33:35.141Z,93458.00
2024-03-01T02:34:35.220Z,93458.00
2024-03-01T02:35:35.194Z,93459.00
2024-03-01T02:36:35.202Z,93458.00
2024-03-01T02:37:35.217Z,93457.00
2024-03-01T02:38:35.238Z,93454.00
2024-03-01T02:39:35.232Z,93455.00
2024-03-01T02:40:35.331Z,93454.00
2024-03-01T02:41:35.321Z,93454.00
2024-03-01T02:42:35.436Z,93455.00
2024-03-01T02:43:35.336Z,93456.00
2024-03-01T02:44:35.317Z,93459.00
2024-03-01T02:45:35.357Z,93459.00
2024-03-01T02:46:35.391Z,93458.00
2024-03-01T02:47:35.414Z,93457.00
2024-03-01T02:48:35.407Z,93454.00
2024-03-01T02:49:35.449Z,93455.00
2024-03-01T02:50:35.460Z,93452.00
2024-03-01T02:51:35.492Z,93453.00
2024-03-01T02:52:35.472Z,93451.00
2024-03-01T02:53:35.478Z,93451.00
2024-03-01T02:54:35.503Z,93453.00
2024-03-01T02:55:35.603Z,93453.00
2024-03-01T02:56:35.517Z,93454.00
2024-03-01T02:57:35.551Z,93451.00
2024-03-01T02:58:35.676Z,93451.00
2024-03-01T02:59:35.593Z,93451.00
2024-03-01T03:00:35.629Z,93450.00
2024-03-01T03:01:35.705Z,93447.00
2024-03-01T03:02:35.615Z,93447.00
2024-03-01T03:03:35.626Z,93443.00
2024-03-01T03:04:35.678Z,93446.00
2024-03-01T03:05:35.667Z,93447.00
2024-03-01T03:06:35.689Z,93448.00
2024-03-01T03:07:35.720Z,93447.00
2024-03-01T03:08:35.747Z,93446.00
2024-03-01T03:09:35.738Z,93447.00
2024-03-01T03:10:35.813Z,93444.00
2024-03-01T03:11:35.823Z,93441.00
2024-03-01T03:12:35.801Z,93442.00
2024-03-01T03:13:35.872Z,93442.00
2024-03-01T03:14:35.954Z,93443.00
2024-03-01T03:15:35.828Z,93442.00
2024-03-01T03:16:35.901Z,93442.00
2024-03-01T03:17:35.908Z,93441.00
2024-03-01T03:18:35.892Z,93439.00
2024-03-01T03:19:36.278Z,93438.00
2024-03-01T03:20:35.922Z,93438.00
2024-03-01T03:21:35.988Z,93439.00
2024-03-01T03:22:36.056Z,93441.00
2024-03-01T03:23:36.007Z,93442.00
2024-03-01T03:24:36.008Z,93440.00
2024-03-01T03:25:36.101Z,93435.00
2024-03-01T03:26:36.039Z,93435.00
2024-03-01T03:27:36.064Z,93435.00
2024-03-01T03:28:36.162Z,93434.00
2024-03-01T03:29:36.125Z,93433.00
2024-03-01T03:30:36.097Z,93433.00
2024-03-01T03:31:36.157Z,93432.00
2024-03-01T03:32:36.170Z,93433.00
2024-03-01T03:33:36.150Z,93433.00
2024-03-01T03:34:36.272Z,93432.00
2024-03-01T03:35:36.203Z,93431.00
2024-03-01T03:36:36.208Z,93429.00
2024-03-01T03:37:36.279Z,93426.00
2024-03-01T03:38:36.231Z,93426.00
2024-03-01T03:39:36.251Z,93427.00
2024-03-01T03:40:36.307Z,93428.00
2024-03-01T03:41:36.282Z,93429.00
2024-03-01T03:42:36.317Z,93430.00
2024-03-01T03:43:36.384Z,93431.00
2024-03-01T03:44:36.339Z,93431.00
2024-03-01T03:45:36.363Z,93428.00
2024-03-01T03:46:36.508Z,93429.00
2024-03-01T03:47:36.427Z,93425.00
2024-03-01T03:48:36.411Z,93426.00
2024-03-01T03:49:36.472Z,93426.00
2024-03-01T03:50:36.484Z,93427.00
2024-03-01T03:51:36.466Z,93428.00
2024-03-01T03:52:36.546Z,93428.00
2024-03-01T03:53:36.496Z,93427.00
2024-03-01T03:54:36.559Z,93428.00
2024-03-01T03:55:36.741Z,93429.00
2024-03-01T03:56:36.547Z,93427.00
2024-03-01T03:57:36.599Z,93428.00
2024-03-01T03:58:36.616Z,93430.00
2024-03-01T03:59:36.632Z,93428.00
2024-03-01T04:00:36.613Z,93428.00
2024-03-01T04:01:36.671Z,93430.00
2024-03-01T04:02:36.751Z,93431.00
2024-03-01T04:03:36.657Z,93432.00
2024-03-01T04:04:36.742Z,93432.00
2024-03-01T04:05:36.703Z,93432.00
2024-03-01T04:06:36.720Z,93431.00
2024-03-01T04:07:36.853Z,93430.00
2024-03-01T04:08:36.745Z,93427.00
2024-03-01T04:09:36.773Z,93422.00
2024-03-01T04:10:36.863Z,93422.00
2024-03-01T04:11:36.856Z,93423.00
2024-03-01T04:12:36.825Z,93424.00
2024-03-01T04:13:37.005Z,93426.00
2024-03-01T04:14:36.859Z,93430.00
2024-03-01T04:15:36.877Z,93429.00
2024-03-01T04:16:36.982Z,93433.00
2024-03-01T04:17:36.970Z,93431.00
2024-03-01T04:18:44.691Z,93435.00
2024-03-01T04:19:44.771Z,93433.00
2024-03-01T04:20:44.759Z,93435.00
2024-03-01T04:21:44.749Z,93438.00
2024-03-01T04:22:44.822Z,93439.00
2024-03-01T04:23:44.854Z,93442.00
2024-03-01T04:24:44.842Z,93440.00
2024-03-01T04:25:44.824Z,93441.00
2024-03-01T04:26:44.853Z,93442.00
2024-03-01T04:27:44.839Z,93441.00
2024-03-01T04:28:44.831Z,93442.00
2024-03-01T04:29:44.836Z,93442.00
2024-03-01T04:30:44.841Z,93443.00
2024-03-01T04:31:52.043Z,93443.00
2024-03-01T04:32:52.108Z,93442.00
2024-03-01T04:33:52.078Z,93441.00
2024-03-01T04:34:52.016Z,93439.00
2024-03-01T04:35:52.033Z,93438.00
2024-03-01T04:36:52.060Z,93436.00
2024-03-01T04:37:52.032Z,93435.00
2024-03-01T04:38:52.020Z,93432.00
2024-03-01T04:39:52.040Z,93429.00
2024-03-01T04:40:52.062Z,93427.00
2024-03-01T04:41:52.022Z,93426.00
2024-03-01T04:42:52.058Z,93423.00
2024-03-01T04:43:52.015Z,93422.00
2024-03-01T04:44:52.013Z,93426.00
2024-03-01T04:45:52.023Z,93426.00
2024-03-01T04:46:52.033Z,93428.00
2024-03-01T04:47:52.074Z,93429.00
2024-03-01T04:48:55.102Z,93431.00
2024-03-01T04:49:52.037Z,93430.00
2024-03-01T04:50:52.023Z,93432.00
2024-03-01T04:51:52.114Z,93432.00
2024-03-01T04:52:52.044Z,93435.00
2024-03-01T04:53:52.029Z,93435.00
2024-03-01T04:54:52.057Z,93437.00
2024-03-01T04:55:52.039Z,93436.00
2024-03-01T04:56:52.042Z,93436.00
2024-03-01T04:57:52.069Z,93436.00
2024-03-01T04:58:52.053Z,93434.00
2024-03-01T04:59:52.063Z,93434.00
2024-03-01T05:00:52.148Z,93433.00
2024-03-01T05:01:52.096Z,93433.00
2024-03-01T05:02:52.070Z,93433.00
2024-03-01T05:03:52.096Z,93433.00
2024-03-01T05:04:52.097Z,93435.00
2024-03-01T05:05:52.039Z,93434.00
2024-03-01T05:06:52.055Z,93434.00
2024-03-01T05:07:52.050Z,93434.00
2024-03-01T05:08:52.036Z,93433.00
2024-03-01T05:09:52.121Z,93431.00
2024-03-01T05:10:52.162Z,93433.00
2024-03-01T05:11:52.078Z,93433.00
2024-03-01T05:12:52.070Z,93431.00
2024-03-01T05:13:52.054Z,93431.00
2024-03-01T05:14:52.045Z,93431.00
2024-03-01T05:15:52.113Z,93430.00
2024-03-01T05:16:52.053Z,93430.00
2024-03-01T05:17:52.097Z,93429.00
2024-03-01T05:18:52.070Z,93429.00
2024-03-01T05:19:52.047Z,93429.00
2024-03-01T05:20:52.045Z,93431.00
2024-03-01T05:21:52.165Z,93431.00
2024-03-01T05:22:52.062Z,93429.00
2024-03-01T05:23:52.068Z,93432.00
2024-03-01T05:24:52.090Z,93431.00
2024-03-01T05:25:52.065Z,93433.00
2024-03-01T05:26:52.072Z,93432.00
2024-03-01T05:27:52.194Z,93430.00
2024-03-01T05:28:52.124Z,93429.00
2024-03-01T05:29:52.064Z,93430.00
2024-03-01T05:30:53.187Z,93428.00
2024-03-01T05:31:52.133Z,93427.00
2024-03-01T05:32:52.093Z,93428.00
2024-03-01T05:33:52.304Z,93427.00
2024-03-01T05:34:52.050Z,93429.00
2024-03-01T05:35:52.065Z,93432.00
2024-03-01T05:36:52.104Z,93432.00
2024-03-01T05:37:52.149Z,93433.00
2024-03-01T05:38:52.074Z,93433.00
2024-03-01T05:39:52.090Z,93434.00
2024-03-01T05:40:53.034Z,93436.00
2024-03-01T05:41:52.083Z,93436.00
2024-03-01T05:42:52.148Z,93436.00
2024-03-01T05:43:52.066Z,93435.00
2024-03-01T05:44:52.082Z,93435.00
2024-03-01T05:45:52.101Z,93434.00
2024-03-01T05:46:52.063Z,93436.00
2024-03-01T05:47:52.115Z,93436.00
2024-03-01T05:48:52.116Z,93434.00
2024-03-01T05:49:52.064Z,93441.00
2024-03-01T05:50:52.086Z,93441.00
2024-03-01T05:51:52.107Z,93442.00
2024-03-01T05:52:52.085Z,93441.00
2024-03-01T05:53:52.172Z,93440.00
2024-03-01T05:54:52.085Z,93439.00
2024-03-01T05:55:52.092Z,93438.00
2024-03-01T05:56:52.086Z,93439.00
2024-03-01T05:57:52.095Z,93441.00
2024-03-01T05:58:52.075Z,93439.00
2024-03-01T05:59:52.087Z,93439.00
2024-03-01T06:00:52.124Z,93439.00
2024-03-01T06:01:52.164Z,93441.00
2024-03-01T06:02:54.655Z,93443.00
2024-03-01T06:03:52.135Z,93446.00
2024-03-01T06:04:52.098Z,93445.00
2024-03-01T06:05:52.101Z,93444.00
2024-03-01T06:06:52.173Z,93445.00
2024-03-01T06:07:52.092Z,93445.00
2024-03-01T06:08:52.106Z,93444.00
2024-03-01T06:09:52.204Z,93444.00
2024-03-01T06:10:52.135Z,93445.00
2024-03-01T06:11:52.131Z,93445.00
2024-03-01T06:12:52.234Z,93443.00
2024-03-01T06:13:52.132Z,93442.00
2024-03-01T06:14:52.123Z,93444.00
2024-03-01T06:15:52.131Z,93443.00
2024-03-01T06:16:52.114Z,93443.00
2024-03-01T06:17:52.160Z,93445.00
2024-03-01T06:18:52.140Z,93445.00
2024-03-01T06:19:52.132Z,93444.00
2024-03-01T06:20:52.147Z,93445.00
2024-03-01T06:21:52.354Z,93447.00
2024-03-01T06:22:52.138Z,93447.00
2024-03-01T06:23:52.136Z,93448.00
2024-03-01T06:24:52.226Z,93449.00
2024-03-01T06:25:52.149Z,93451.00
2024-03-01T06:26:52.166Z,93452.00
2024-03-01T06:27:52.217Z,93452.00
2024-03-01T06:28:52.183Z,93452.00
2024-03-01T06:29:52.145Z,93451.00
2024-03-01T06:30:52.179Z,93454.00
2024-03-01T06:31:52.142Z,93453.00
2024-03-01T06:32:52.222Z,93452.00
2024-03-01T06:33:52.174Z,93453.00
2024-03-01T06:34:52.159Z,93453.00
2024-03-01T06:35:52.161Z,93454.00
2024-03-01T06:36:52.176Z,93456.00
2024-03-01T06:37:52.193Z,93455.00
2024-03-01T06:38:52.158Z,93458.00
2024-03-01T06:39:52.253Z,93459.00
2024-03-01T06:40:52.157Z,93457.00
2024-03-01T06:41:52.150Z,93462.00
2024-03-01T06:42:53.096Z,93462.00
2024-03-01T06:43:52.153Z,93462.00
2024-03-01T06:44:52.164Z,93463.00
2024-03-01T06:45:52.191Z,93463.00
2024-03-01T06:46:52.152Z,93466.00
2024-03-01T06:47:52.256Z,93465.00
2024-03-01T06:48:52.199Z,93467.00
2024-03-01T06:49:52.199Z,93468.00
2024-03-01T06:50:52.178Z,93471.00
2024-03-01T06:51:52.241Z,93473.00
2024-03-01T06:52:52.166Z,93473.00
2024-03-01T06:53:52.185Z,93476.00
2024-03-01T06:54:52.192Z,93477.00
2024-03-01T06:55:52.202Z,93479.00
2024-03-01T06:56:52.255Z,93479.00
2024-03-01T06:57:52.324Z,93481.00
2024-03-01T06:58:52.160Z,93482.00
2024-03-01T06:59:52.160Z,93482.00
2024-03-01T07:00:52.235Z,93481.00
2024-03-01T07:01:52.255Z,93482.00
2024-03-01T07:02:52.213Z,93482.00
2024-03-01T07:03:52.248Z,93482.00
2024-03-01T07:04:52.190Z,93483.00
2024-03-01T07:05:52.178Z,93481.00
2024-03-01T07:06:52.250Z,93485.00
2024-03-01T07:07:52.219Z,93488.00
2024-03-01T07:08:52.190Z,93487.00
2024-03-01T07:09:52.320Z,93487.00
2024-03-01T07:10:52.362Z,93487.00
2024-03-01T07:11:52.236Z,93486.00
2024-03-01T07:12:52.900Z,93488.00
2024-03-01T07:13:52.311Z,93485.00
2024-03-01T07:14:52.255Z,93486.00
2024-03-01T07:15:52.324Z,93485.00
2024-03-01T07:16:52.307Z,93486.00
2024-03-01T07:17:52.345Z,93484.00
2024-03-01T07:18:52.361Z,93486.00
2024-03-01T07:19:52.309Z,93493.00
2024-03-01T07:20:52.325Z,93491.00
2024-03-01T07:21:52.424Z,93491.00
2024-03-01T07:22:52.368Z,93489.00
2024-03-01T07:23:52.374Z,93488.00
2024-03-01T07:24:52.401Z,93491.00
2024-03-01T07:25:52.408Z,93493.00
2024-03-01T07:26:52.413Z,93494.00
2024-03-01T07:27:52.514Z,93496.00
2024-03-01T07:28:52.731Z,93494.00
2024-03-01T07:29:52.522Z,93493.00
2024-03-01T07:30:52.484Z,93493.00
2024-03-01T07:31:52.492Z,93492.00
2024-03-01T07:32:52.582Z,93494.00
2024-03-01T07:33:52.867Z,93493.00
2024-03-01T07:34:52.596Z,93496.00
2024-03-01T07:35:52.629Z,93495.00
2024-03-01T07:36:52.735Z,93496.00
2024-03-01T07:37:52.759Z,93492.00
2024-03-01T07:38:52.809Z,93493.00
2024-03-01T07:39:52.936Z,93491.00
2024-03-01T07:40:52.912Z,93490.00
2024-03-01T07:41:52.957Z,93490.00
2024-03-01T07:42:53.009Z,93492.00
2024-03-01T07:43:53.079Z,93491.00
2024-03-01T07:44:53.057Z,93491.00
2024-03-01T07:45:53.170Z,93489.00
2024-03-01T07:46:53.146Z,93486.00
2024-03-01T07:47:53.256Z,93483.00
2024-03-01T07:48:53.751Z,93479.00
2024-03-01T07:49:53.316Z,93480.00
2024-03-01T07:50:53.365Z,93477.00
2024-03-01T07:51:53.609Z,93478.00
2024-03-01T07:52:53.745Z,93477.00
2024-03-01T07:53:53.533Z,93476.00
2024-03-01T07:54:53.600Z,93473.00
2024-03-01T07:55:53.664Z,93473.00
2024-03-01T07:56:53.696Z,93473.00
2024-03-01T07:57:53.885Z,93472.00
2024-03-01T07:58:53.887Z,93470.00
2024-03-01T07:59:53.861Z,93469.00
2024-03-01T08:00:53.958Z,93467.00
2024-03-01T08:01:54.082Z,93466.00
2024-03-01T08:02:54.034Z,93465.00
2024-03-01T08:03:55.532Z,93469.00
2024-03-01T08:04:54.081Z,93466.00
2024-03-01T08:05:54.072Z,93467.00
2024-03-01T08:06:54.089Z,93465.00
2024-03-01T08:07:54.051Z,93463.00
2024-03-01T08:08:54.053Z,93460.00
2024-03-01T08:09:54.109Z,93462.00
2024-03-01T08:10:54.072Z,93461.00
2024-03-01T08:11:54.067Z,93462.00
2024-03-01T08:12:54.095Z,93460.00
2024-03-01T08:13:54.086Z,93457.00
2024-03-01T08:14:54.061Z,93459.00
2024-03-01T08:15:54.067Z,93456.00
2024-03-01T08:16:54.070Z,93458.00
2024-03-01T08:17:54.085Z,93455.00
2024-03-01T08:18:54.068Z,93456.00
2024-03-01T08:19:54.057Z,93456.00
2024-03-01T08:20:54.089Z,93457.00
2024-03-01T08:21:54.113Z,93455.00
2024-03-01T08:22:54.070Z,93455.00
2024-03-01T08:23:54.077Z,93456.00
2024-03-01T08:24:54.182Z,93460.00
2024-03-01T08:25:54.074Z,93458.00
2024-03-01T08:26:54.067Z,93457.00
2024-03-01T08:27:54.252Z,93455.00
2024-03-01T08:28:54.080Z,93456.00
2024-03-01T08:29:54.083Z,93456.00
2024-03-01T08:30:54.304Z,93458.00
2024-03-01T08:31:54.109Z,93460.00
2024-03-01T08:32:54.258Z,93462.00
2024-03-01T08:33:54.190Z,93466.00
2024-03-01T08:34:54.087Z,93468.00
2024-03-01T08:35:54.099Z,93467.00
2024-03-01T08:36:54.419Z,93468.00
2024-03-01T08:37:54.248Z,93466.00
2024-03-01T08:38:54.084Z,93466.00
2024-03-01T08:39:54.156Z,93466.00
2024-03-01T08:40:54.283Z,93470.00
2024-03-01T08:41:54.089Z,93475.00
2024-03-01T08:42:54.111Z,93477.00
2024-03-01T08:43:54.106Z,93474.00
2024-03-01T08:44:54.104Z,93472.00
2024-03-01T08:45:54.129Z,93476.00
2024-03-01T08:46:54.112Z,93475.00
2024-03-01T08:47:54.279Z,93479.00
2024-03-01T08:48:54.140Z,93481.00
2024-03-01T08:49:56.880Z,93479.00
2024-03-01T08:50:54.125Z,93482.00
2024-03-01T08:51:54.150Z,93483.00
2024-03-01T08:52:54.107Z,93485.00
2024-03-01T08:53:54.101Z,93486.00
2024-03-01T08:54:54.192Z,93486.00
2024-03-01T08:55:54.125Z,93487.00
2024-03-01T08:56:54.145Z,93486.00
2024-03-01T08:57:54.161Z,93492.00
2024-03-01T08:58:54.171Z,93494.00
2024-03-01T08:59:54.114Z,93497.00
2024-03-01T09:00:54.276Z,93497.00
2024-03-01T09:01:54.247Z,93499.00
2024-03-01T09:02:54.134Z,93501.00
2024-03-01T09:03:54.148Z,93502.00
2024-03-01T09:04:54.184Z,93504.00
2024-03-01T09:05:54.210Z,93505.00
2024-03-01T09:06:54.202Z,93502.00
2024-03-01T09:07:54.133Z,93501.00
2024-03-01T09:08:54.114Z,93501.00
2024-03-01T09:09:54.167Z,93502.00
2024-03-01T09:10:54.235Z,93500.00
2024-03-01T09:11:54.123Z,93500.00
2024-03-01T09:12:54.125Z,93503.00
2024-03-01T09:13:54.112Z,93500.00
2024-03-01T09:14:54.133Z,93504.00
2024-03-01T09:15:54.145Z,93503.00
2024-03-01T09:16:54.109Z,93503.00
2024-03-01T09:17:54.141Z,93502.00
2024-03-01T09:18:54.154Z,93502.00
2024-03-01T09:19:54.128Z,93501.00
2024-03-01T09:20:54.123Z,93491.00
2024-03-01T09:21:54.253Z,93493.00
2024-03-01T09:22:54.118Z,93498.00
2024-03-01T09:23:54.141Z,93493.00
2024-03-01T09:24:54.134Z,93493.00
2024-03-01T09:25:54.179Z,93495.00
2024-03-01T09:26:54.229Z,93497.00
2024-03-01T09:27:54.333Z,93496.00
2024-03-01T09:28:54.336Z,93497.00
2024-03-01T09:29:54.400Z,93502.00
2024-03-01T09:30:54.581Z,93504.00
2024-03-01T09:31:54.499Z,93501.00
2024-03-01T09:32:54.639Z,93503.00
2024-03-01T09:33:54.713Z,93501.00
2024-03-01T09:34:54.653Z,93500.00
2024-03-01T09:35:54.719Z,93501.00
2024-03-01T09:36:54.817Z,93498.00
2024-03-01T09:37:55.321Z,93494.00
2024-03-01T09:38:54.862Z,93495.00
2024-03-01T09:39:55.743Z,93493.00
2024-03-01T09:40:54.934Z,93493.00
2024-03-01T09:41:54.995Z,93495.00
2024-03-01T09:42:55.271Z,93492.00
2024-03-01T09:43:55.020Z,93492.00
2024-03-01T09:44:55.077Z,93490.00
2024-03-01T09:45:55.183Z,93492.00
2024-03-01T09:46:55.187Z,93492.00
2024-03-01T09:47:55.318Z,93489.00
2024-03-01T09:48:55.868Z,93487.00
2024-03-01T09:49:55.339Z,93485.00
2024-03-01T09:50:55.395Z,93485.00
2024-03-01T09:51:55.521Z,93484.00
2024-03-01T09:52:55.521Z,93482.00
2024-03-01T09:53:55.854Z,93482.00
2024-03-01T09:54:55.689Z,93483.00
2024-03-01T09:55:55.745Z,93481.00
2024-03-01T09:56:55.815Z,93483.00
2024-03-01T09:57:56.022Z,93483.00
2024-03-01T09:58:55.912Z,93481.00
2024-03-01T09:59:55.958Z,93481.00
2024-03-01T10:00:56.134Z,93479.00
2024-03-01T10:01:56.121Z,93484.00
2024-03-01T10:02:56.269Z,93479.00
2024-03-01T10:03:56.251Z,93480.00
2024-03-01T10:04:56.447Z,93480.00
2024-03-01T10:05:59.564Z,93477.00
2024-03-01T10:06:57.388Z,93475.00
2024-03-01T10:07:56.344Z,93474.00
2024-03-01T10:08:56.352Z,93473.00
2024-03-01T10:09:56.472Z,93472.00
2024-03-01T10:10:56.404Z,93472.00
2024-03-01T10:11:56.347Z,93471.00
2024-03-01T10:12:56.450Z,93469.00
2024-03-01T10:13:56.380Z,93470.00
2024-03-01T10:14:56.453Z,93471.00
2024-03-01T10:15:56.554Z,93465.00
2024-03-01T10:16:56.576Z,93466.00
2024-03-01T10:17:56.866Z,93464.00
2024-03-01T10:18:56.740Z,93465.00
2024-03-01T10:19:56.791Z,93464.00
2024-03-01T10:20:56.850Z,93463.00
2024-03-01T10:21:56.964Z,93466.00
2024-03-01T10:22:57.005Z,93464.00
2024-03-01T10:23:57.040Z,93463.00
2024-03-01T10:24:57.205Z,93463.00
2024-03-01T10:25:57.299Z,93460.00
2024-03-01T10:26:57.249Z,93460.00
2024-03-01T10:27:57.792Z,93460.00
2024-03-01T10:28:57.368Z,93459.00
2024-03-01T10:29:57.462Z,93460.00
2024-03-01T10:30:57.567Z,93461.00
2024-03-01T10:31:57.566Z,93460.00
2024-03-01T10:32:57.814Z,93460.00
2024-03-01T10:33:58.776Z,93461.00
2024-03-01T10:34:57.736Z,93458.00
2024-03-01T10:35:57.769Z,93460.00
2024-03-01T10:36:57.836Z,93462.00
2024-03-01T10:37:58.300Z,93460.00
2024-03-01T10:38:57.886Z,93458.00
2024-03-01T10:39:57.919Z,93459.00
2024-03-01T10:40:57.981Z,93460.00
2024-03-01T10:41:58.033Z,93457.00
2024-03-01T10:42:58.304Z,93458.00
2024-03-01T10:43:58.022Z,93458.00
2024-03-01T10:44:58.051Z,93457.00
2024-03-01T10:45:58.061Z,93457.00
2024-03-01T10:46:58.060Z,93456.00
2024-03-01T10:47:58.113Z,93456.00
2024-03-01T10:48:58.097Z,93456.00
2024-03-01T10:49:58.108Z,93459.00
2024-03-01T10:50:58.212Z,93453.00
2024-03-01T10:51:58.175Z,93454.00
2024-03-01T10:52:58.172Z,93453.00
2024-03-01T10:53:58.170Z,93454.00
2024-03-01T10:54:58.228Z,93451.00
2024-03-01T10:55:58.237Z,93456.00
2024-03-01T10:56:58.305Z,93454.00
2024-03-01T10:57:58.424Z,93458.00
2024-03-01T10:58:58.313Z,93453.00
2024-03-01T10:59:58.360Z,93453.00
2024-03-01T11:00:58.576Z,93452.00
2024-03-01T11:01:58.553Z,93451.00
2024-03-01T11:02:58.473Z,93452.00
2024-03-01T11:03:58.470Z,93452.00
2024-03-01T11:04:58.609Z,93451.00
2024-03-01T11:05:58.571Z,93450.00
2024-03-01T11:06:58.630Z,93449.00
2024-03-01T11:07:58.813Z,93442.00
2024-03-01T11:08:58.647Z,93446.00
2024-03-01T11:09:58.786Z,93447.00
2024-03-01T11:10:58.843Z,93447.00
2024-03-01T11:11:58.725Z,93448.00
2024-03-01T11:12:58.791Z,93442.00
2024-03-01T11:13:58.827Z,93441.00
2024-03-01T11:14:58.822Z,93440.00
2024-03-01T11:15:58.879Z,93440.00
2024-03-01T11:16:58.858Z,93439.00
2024-03-01T11:17:58.977Z,93437.00
2024-03-01T11:18:58.879Z,93437.00
2024-03-01T11:19:58.916Z,93436.00
2024-03-01T11:20:58.928Z,93437.00
2024-03-01T11:21:58.930Z,93434.00
2024-03-01T11:22:59.312Z,93435.00
2024-03-01T11:23:59.058Z,93435.00
2024-03-01T11:24:59.081Z,93435.00
2024-03-01T11:25:59.071Z,93437.00
2024-03-01T11:26:59.066Z,93437.00
2024-03-01T11:27:59.378Z,93439.00
2024-03-01T11:28:59.116Z,93438.00
2024-03-01T11:29:59.131Z,93437.00
2024-03-01T11:30:59.196Z,93437.00
2024-03-01T11:31:59.179Z,93437.00
2024-03-01T11:32:59.350Z,93436.00
2024-03-01T11:33:59.247Z,93435.00
2024-03-01T11:34:59.301Z,93436.00
2024-03-01T11:35:59.308Z,93433.00
2024-03-01T11:36:59.354Z,93423.00
2024-03-01T11:37:59.819Z,93422.00
2024-03-01T11:38:59.344Z,93421.00
2024-03-01T11:39:59.372Z,93424.00
2024-03-01T11:40:59.367Z,93424.00
2024-03-01T11:41:59.371Z,93425.00
2024-03-01T11:42:59.465Z,93424.00
2024-03-01T11:43:59.457Z,93422.00
2024-03-01T11:44:59.461Z,93423.00